sensor_id;sensor_type;location;lat;lon;timestamp;pressure;altitude;pressure_sealevel;temperature;humidity
29985;BME280;17387;42.690;23.328;2022-07-23T00:00:16;47303.25;;;-144.02;54.49
29985;BME280;17387;42.690;23.328;2022-07-23T00:02:42;47284.97;;;-144.02;54.85
29985;BME280;17387;42.690;23.328;2022-07-23T00:05:07;47303.25;;;-144.02;54.84
29985;BME280;17387;42.690;23.328;2022-07-23T00:07:33;47343.88;;;-144.02;55.03
29985;BME280;17387;42.690;23.328;2022-07-23T00:09:59;47339.81;;;-144.02;55.49
29985;BME280;17387;42.690;23.328;2022-07-23T00:12:24;47321.53;;;-144.02;55.23
29985;BME280;17387;42.690;23.328;2022-07-23T00:14:50;47287.00;;;-144.02;53.45
29985;BME280;17387;42.690;23.328;2022-07-23T00:17:15;47319.50;;;-144.02;53.25
29985;BME280;17387;42.690;23.328;2022-07-23T00:19:41;47315.44;;;-144.02;52.65
29985;BME280;17387;42.690;23.328;2022-07-23T00:22:06;47325.59;;;-144.02;53.15
29985;BME280;17387;42.690;23.328;2022-07-23T00:24:32;47299.19;;;-144.02;53.59
29985;BME280;17387;42.690;23.328;2022-07-23T00:26:57;47315.44;;;-144.02;54.57
29985;BME280;17387;42.690;23.328;2022-07-23T00:29:23;47297.16;;;-144.02;55.11
29985;BME280;17387;42.690;23.328;2022-07-23T00:31:48;47319.50;;;-144.02;55.88
29985;BME280;17387;42.690;23.328;2022-07-23T00:34:13;47335.75;;;-144.02;56.59
29985;BME280;17387;42.690;23.328;2022-07-23T00:36:39;47343.88;;;-144.02;56.76
29985;BME280;17387;42.690;23.328;2022-07-23T00:39:04;47358.09;;;-144.02;56.73
29985;BME280;17387;42.690;23.328;2022-07-23T00:41:30;47354.03;;;-144.02;56.79
29985;BME280;17387;42.690;23.328;2022-07-23T00:43:55;47335.75;;;-144.02;56.92
29985;BME280;17387;42.690;23.328;2022-07-23T00:46:22;47301.22;;;-144.02;56.93
29985;BME280;17387;42.690;23.328;2022-07-23T00:48:48;47339.81;;;-144.02;57.13
29985;BME280;17387;42.690;23.328;2022-07-23T00:51:17;47289.03;;;-144.02;56.92
29985;BME280;17387;42.690;23.328;2022-07-23T00:53:43;47331.69;;;-144.02;57.19
29985;BME280;17387;42.690;23.328;2022-07-23T00:56:10;47325.59;;;-144.02;57.45
29985;BME280;17387;42.690;23.328;2022-07-23T00:58:35;47331.69;;;-144.02;56.57
29985;BME280;17387;42.690;23.328;2022-07-23T01:01:02;47362.16;;;-144.02;56.10
29985;BME280;17387;42.690;23.328;2022-07-23T01:03:27;47352.00;;;-144.02;54.77
29985;BME280;17387;42.690;23.328;2022-07-23T01:05:53;47341.84;;;-144.02;54.19
29985;BME280;17387;42.690;23.328;2022-07-23T01:08:19;47319.50;;;-144.02;54.46
29985;BME280;17387;42.690;23.328;2022-07-23T01:10:47;47315.44;;;-144.02;54.37
29985;BME280;17387;42.690;23.328;2022-07-23T01:13:13;47335.75;;;-144.02;54.48
29985;BME280;17387;42.690;23.328;2022-07-23T01:15:39;47305.28;;;-144.02;53.96
29985;BME280;17387;42.690;23.328;2022-07-23T01:18:05;47335.75;;;-144.02;53.81
29985;BME280;17387;42.690;23.328;2022-07-23T01:20:31;47331.69;;;-144.02;53.89
29985;BME280;17387;42.690;23.328;2022-07-23T01:22:57;47293.09;;;-144.02;53.69
29985;BME280;17387;42.690;23.328;2022-07-23T01:25:23;47347.94;;;-144.02;53.78
29985;BME280;17387;42.690;23.328;2022-07-23T01:27:49;47362.16;;;-144.02;53.91
29985;BME280;17387;42.690;23.328;2022-07-23T01:30:15;47380.44;;;-144.02;53.86
29985;BME280;17387;42.690;23.328;2022-07-23T01:32:40;47323.56;;;-144.02;54.64
29985;BME280;17387;42.690;23.328;2022-07-23T01:35:06;47343.88;;;-144.02;55.14
29985;BME280;17387;42.690;23.328;2022-07-23T01:37:32;47376.38;;;-144.02;55.26
29985;BME280;17387;42.690;23.328;2022-07-23T01:39:57;47378.41;;;-144.02;55.37
29985;BME280;17387;42.690;23.328;2022-07-23T01:42:23;47315.44;;;-144.02;55.91
29985;BME280;17387;42.690;23.328;2022-07-23T01:44:49;47374.34;;;-144.02;55.03
29985;BME280;17387;42.690;23.328;2022-07-23T01:47:14;47331.69;;;-144.02;55.46
29985;BME280;17387;42.690;23.328;2022-07-23T01:49:40;47341.84;;;-144.02;55.35
29985;BME280;17387;42.690;23.328;2022-07-23T01:52:05;47408.88;;;-144.02;55.47
29985;BME280;17387;42.690;23.328;2022-07-23T01:54:34;47356.06;;;-144.02;55.60
29985;BME280;17387;42.690;23.328;2022-07-23T01:57:00;47327.63;;;-144.02;55.87
29985;BME280;17387;42.690;23.328;2022-07-23T01:59:27;47358.09;;;-144.02;55.70
29985;BME280;17387;42.690;23.328;2022-07-23T02:01:53;47333.72;;;-144.02;55.72
29985;BME280;17387;42.690;23.328;2022-07-23T02:04:20;47360.13;;;-144.02;55.60
29985;BME280;17387;42.690;23.328;2022-07-23T02:06:46;47341.84;;;-144.02;56.43
29985;BME280;17387;42.690;23.328;2022-07-23T02:09:11;47325.59;;;-144.02;56.43
29985;BME280;17387;42.690;23.328;2022-07-23T02:11:37;47331.69;;;-144.02;56.28
29985;BME280;17387;42.690;23.328;2022-07-23T02:14:02;47427.16;;;-144.02;56.83
29985;BME280;17387;42.690;23.328;2022-07-23T02:16:28;47307.31;;;-144.02;57.12
29985;BME280;17387;42.690;23.328;2022-07-23T02:18:54;47349.97;;;-144.02;56.94
29985;BME280;17387;42.690;23.328;2022-07-23T02:21:20;47299.19;;;-144.02;57.41
29985;BME280;17387;42.690;23.328;2022-07-23T02:23:45;47402.78;;;-144.02;57.41
29985;BME280;17387;42.690;23.328;2022-07-23T02:26:11;47315.44;;;-144.02;56.86
29985;BME280;17387;42.690;23.328;2022-07-23T02:28:37;47335.75;;;-144.02;56.85
29985;BME280;17387;42.690;23.328;2022-07-23T02:31:03;47358.09;;;-144.02;57.48
29985;BME280;17387;42.690;23.328;2022-07-23T02:33:28;47372.31;;;-144.02;57.48
29985;BME280;17387;42.690;23.328;2022-07-23T02:35:54;47343.88;;;-144.02;57.35
29985;BME280;17387;42.690;23.328;2022-07-23T02:38:20;47382.47;;;-144.02;57.83
29985;BME280;17387;42.690;23.328;2022-07-23T02:40:45;47319.50;;;-144.02;58.05
29985;BME280;17387;42.690;23.328;2022-07-23T02:43:10;47345.91;;;-144.02;58.67
29985;BME280;17387;42.690;23.328;2022-07-23T02:45:36;47319.50;;;-144.02;59.11
29985;BME280;17387;42.690;23.328;2022-07-23T02:48:01;47295.13;;;-144.02;59.48
29985;BME280;17387;42.690;23.328;2022-07-23T02:50:27;47327.63;;;-144.02;59.42
29985;BME280;17387;42.690;23.328;2022-07-23T02:52:52;47352.00;;;-144.02;59.56
29985;BME280;17387;42.690;23.328;2022-07-23T02:55:18;47345.91;;;-144.02;60.34
29985;BME280;17387;42.690;23.328;2022-07-23T02:57:43;47352.00;;;-144.02;60.63
29985;BME280;17387;42.690;23.328;2022-07-23T03:00:09;47380.44;;;-144.02;61.00
29985;BME280;17387;42.690;23.328;2022-07-23T03:02:35;47333.72;;;-144.02;61.34
29985;BME280;17387;42.690;23.328;2022-07-23T03:05:00;47343.88;;;-144.02;62.33
29985;BME280;17387;42.690;23.328;2022-07-23T03:07:26;47327.63;;;-144.02;61.26
29985;BME280;17387;42.690;23.328;2022-07-23T03:09:51;47319.50;;;-144.02;62.13
29985;BME280;17387;42.690;23.328;2022-07-23T03:12:17;47372.31;;;-144.02;61.60
29985;BME280;17387;42.690;23.328;2022-07-23T03:14:42;47376.38;;;-144.02;62.20
29985;BME280;17387;42.690;23.328;2022-07-23T03:17:08;47364.19;;;-144.02;62.31
29985;BME280;17387;42.690;23.328;2022-07-23T03:19:34;47354.03;;;-144.02;62.07
29985;BME280;17387;42.690;23.328;2022-07-23T03:21:59;47299.19;;;-144.02;61.27
29985;BME280;17387;42.690;23.328;2022-07-23T03:24:25;47347.94;;;-144.02;61.16
29985;BME280;17387;42.690;23.328;2022-07-23T03:27:10;47360.13;;;-144.02;60.62
29985;BME280;17387;42.690;23.328;2022-07-23T03:29:36;47319.50;;;-144.02;60.17
29985;BME280;17387;42.690;23.328;2022-07-23T03:32:03;47347.94;;;-144.02;59.95
29985;BME280;17387;42.690;23.328;2022-07-23T03:34:29;47349.97;;;-144.02;60.11
29985;BME280;17387;42.690;23.328;2022-07-23T03:36:54;47345.91;;;-144.02;59.86
29985;BME280;17387;42.690;23.328;2022-07-23T03:39:19;47335.75;;;-144.02;59.62
29985;BME280;17387;42.690;23.328;2022-07-23T03:41:45;47345.91;;;-144.02;59.36
29985;BME280;17387;42.690;23.328;2022-07-23T03:44:10;47370.28;;;-144.02;59.57
29985;BME280;17387;42.690;23.328;2022-07-23T03:46:36;47317.47;;;-144.02;59.29
29985;BME280;17387;42.690;23.328;2022-07-23T03:49:01;47345.91;;;-144.02;59.69
29985;BME280;17387;42.690;23.328;2022-07-23T03:51:27;47356.06;;;-144.02;59.72
29985;BME280;17387;42.690;23.328;2022-07-23T03:53:52;47343.88;;;-144.02;59.80
29985;BME280;17387;42.690;23.328;2022-07-23T03:56:18;47335.75;;;-144.02;59.17
29985;BME280;17387;42.690;23.328;2022-07-23T03:58:43;47356.06;;;-144.02;59.08
29985;BME280;17387;42.690;23.328;2022-07-23T04:01:09;47327.63;;;-144.02;59.00
29985;BME280;17387;42.690;23.328;2022-07-23T04:03:34;47331.69;;;-144.02;58.89
29985;BME280;17387;42.690;23.328;2022-07-23T04:06:00;47412.94;;;-144.02;59.35
29985;BME280;17387;42.690;23.328;2022-07-23T04:08:25;47335.75;;;-144.02;58.88
29985;BME280;17387;42.690;23.328;2022-07-23T04:10:51;47323.56;;;-144.02;58.50
29985;BME280;17387;42.690;23.328;2022-07-23T04:13:16;47341.84;;;-144.02;58.21
29985;BME280;17387;42.690;23.328;2022-07-23T04:15:42;47356.06;;;-144.02;57.87
29985;BME280;17387;42.690;23.328;2022-07-23T04:18:07;47323.56;;;-144.02;57.25
29985;BME280;17387;42.690;23.328;2022-07-23T04:20:33;47453.56;;;-144.02;57.70
29985;BME280;17387;42.690;23.328;2022-07-23T04:22:59;47339.81;;;-144.02;57.09
29985;BME280;17387;42.690;23.328;2022-07-23T04:25:24;47343.88;;;-144.02;57.77
29985;BME280;17387;42.690;23.328;2022-07-23T04:27:49;47364.19;;;-144.02;57.31
29985;BME280;17387;42.690;23.328;2022-07-23T04:30:15;47317.47;;;-144.02;56.84
29985;BME280;17387;42.690;23.328;2022-07-23T04:32:40;47317.47;;;-144.02;56.63
29985;BME280;17387;42.690;23.328;2022-07-23T04:35:06;47390.59;;;-144.02;55.90
29985;BME280;17387;42.690;23.328;2022-07-23T04:37:31;47352.00;;;-144.02;56.21
29985;BME280;17387;42.690;23.328;2022-07-23T04:39:57;47341.84;;;-144.02;55.95
29985;BME280;17387;42.690;23.328;2022-07-23T04:42:22;47362.16;;;-144.02;55.91
29985;BME280;17387;42.690;23.328;2022-07-23T04:44:48;47356.06;;;-144.02;55.95
29985;BME280;17387;42.690;23.328;2022-07-23T04:47:13;47325.59;;;-144.02;54.97
29985;BME280;17387;42.690;23.328;2022-07-23T04:49:38;47289.03;;;-144.02;54.74
29985;BME280;17387;42.690;23.328;2022-07-23T04:52:04;47352.00;;;-144.02;54.83
29985;BME280;17387;42.690;23.328;2022-07-23T04:54:29;47339.81;;;-144.02;55.64
29985;BME280;17387;42.690;23.328;2022-07-23T04:56:55;47309.34;;;-144.02;54.39
29985;BME280;17387;42.690;23.328;2022-07-23T04:59:20;47327.63;;;-144.02;55.34
29985;BME280;17387;42.690;23.328;2022-07-23T05:01:45;47323.56;;;-144.02;55.38
29985;BME280;17387;42.690;23.328;2022-07-23T05:04:11;47329.66;;;-144.02;53.77
29985;BME280;17387;42.690;23.328;2022-07-23T05:06:36;47323.56;;;-144.02;53.38
29985;BME280;17387;42.690;23.328;2022-07-23T05:09:02;47315.44;;;-144.02;53.23
29985;BME280;17387;42.690;23.328;2022-07-23T05:11:27;47321.53;;;-144.02;52.53
29985;BME280;17387;42.690;23.328;2022-07-23T05:13:53;47327.63;;;-144.02;51.79
29985;BME280;17387;42.690;23.328;2022-07-23T05:16:18;47313.41;;;-144.02;51.40
29985;BME280;17387;42.690;23.328;2022-07-23T05:18:44;47327.63;;;-144.02;51.70
29985;BME280;17387;42.690;23.328;2022-07-23T05:21:09;47315.44;;;-144.02;51.14
29985;BME280;17387;42.690;23.328;2022-07-23T05:23:34;47323.56;;;-144.02;50.83
29985;BME280;17387;42.690;23.328;2022-07-23T05:26:00;47315.44;;;-144.02;51.07
29985;BME280;17387;42.690;23.328;2022-07-23T05:28:25;47309.34;;;-144.02;51.60
29985;BME280;17387;42.690;23.328;2022-07-23T05:30:51;47333.72;;;-144.02;52.21
29985;BME280;17387;42.690;23.328;2022-07-23T05:33:19;47327.63;;;-144.02;52.75
29985;BME280;17387;42.690;23.328;2022-07-23T05:35:45;47297.16;;;-144.02;52.04
29985;BME280;17387;42.690;23.328;2022-07-23T05:38:10;47323.56;;;-144.02;51.45
29985;BME280;17387;42.690;23.328;2022-07-23T05:40:36;47331.69;;;-144.02;51.39
29985;BME280;17387;42.690;23.328;2022-07-23T05:43:01;47315.44;;;-144.02;51.09
29985;BME280;17387;42.690;23.328;2022-07-23T05:45:27;47315.44;;;-144.02;50.62
29985;BME280;17387;42.690;23.328;2022-07-23T05:47:52;47327.63;;;-144.02;50.63
29985;BME280;17387;42.690;23.328;2022-07-23T05:50:18;47270.75;;;-144.02;50.52
29985;BME280;17387;42.690;23.328;2022-07-23T05:52:43;47309.34;;;-144.02;50.11
29985;BME280;17387;42.690;23.328;2022-07-23T05:55:10;47307.31;;;-144.02;49.83
29985;BME280;17387;42.690;23.328;2022-07-23T05:57:36;47299.19;;;-144.02;49.64
29985;BME280;17387;42.690;23.328;2022-07-23T06:00:03;47319.50;;;-144.02;49.73
29985;BME280;17387;42.690;23.328;2022-07-23T06:02:29;47325.59;;;-144.02;49.78
29985;BME280;17387;42.690;23.328;2022-07-23T06:04:54;47295.13;;;-144.02;48.07
29985;BME280;17387;42.690;23.328;2022-07-23T06:07:20;47280.91;;;-144.02;48.37
29985;BME280;17387;42.690;23.328;2022-07-23T06:09:45;47417.00;;;-144.02;48.09
29985;BME280;17387;42.690;23.328;2022-07-23T06:12:12;47311.38;;;-144.02;47.94
29985;BME280;17387;42.690;23.328;2022-07-23T06:14:38;47309.34;;;-144.02;47.51
29985;BME280;17387;42.690;23.328;2022-07-23T06:17:03;47372.31;;;-144.02;47.40
29985;BME280;17387;42.690;23.328;2022-07-23T06:19:29;47289.03;;;-144.02;46.57
29985;BME280;17387;42.690;23.328;2022-07-23T06:21:54;47301.22;;;-144.02;45.32
29985;BME280;17387;42.690;23.328;2022-07-23T06:24:20;47323.56;;;-144.02;44.75
29985;BME280;17387;42.690;23.328;2022-07-23T06:26:45;47315.44;;;-144.02;44.28
29985;BME280;17387;42.690;23.328;2022-07-23T06:29:11;47278.88;;;-144.02;43.94
29985;BME280;17387;42.690;23.328;2022-07-23T06:31:37;47307.31;;;-144.02;44.16
29985;BME280;17387;42.690;23.328;2022-07-23T06:34:02;47303.25;;;-144.02;43.92
29985;BME280;17387;42.690;23.328;2022-07-23T06:36:28;47325.59;;;-144.02;43.70
29985;BME280;17387;42.690;23.328;2022-07-23T06:38:54;47262.63;;;-144.02;44.25
29985;BME280;17387;42.690;23.328;2022-07-23T06:41:19;47313.41;;;-144.02;44.62
29985;BME280;17387;42.690;23.328;2022-07-23T06:43:44;47295.13;;;-144.02;44.61
29985;BME280;17387;42.690;23.328;2022-07-23T06:46:10;47297.16;;;-144.02;44.62
29985;BME280;17387;42.690;23.328;2022-07-23T06:48:35;47262.63;;;-144.02;44.46
29985;BME280;17387;42.690;23.328;2022-07-23T06:51:02;47276.84;;;-144.02;44.12
29985;BME280;17387;42.690;23.328;2022-07-23T06:53:28;47297.16;;;-144.02;43.29
29985;BME280;17387;42.690;23.328;2022-07-23T06:55:53;47242.31;;;-144.02;42.37
29985;BME280;17387;42.690;23.328;2022-07-23T06:58:19;47242.31;;;-144.02;41.49
29985;BME280;17387;42.690;23.328;2022-07-23T07:00:45;47287.00;;;-144.02;41.01
29985;BME280;17387;42.690;23.328;2022-07-23T07:03:11;47305.28;;;-144.02;40.65
29985;BME280;17387;42.690;23.328;2022-07-23T07:05:36;47303.25;;;-144.02;40.85
29985;BME280;17387;42.690;23.328;2022-07-23T07:08:02;47295.13;;;-144.02;40.25
29985;BME280;17387;42.690;23.328;2022-07-23T07:10:27;47291.06;;;-144.02;40.28
29985;BME280;17387;42.690;23.328;2022-07-23T07:12:53;47268.72;;;-144.02;39.72
29985;BME280;17387;42.690;23.328;2022-07-23T07:15:18;47266.69;;;-144.02;39.21
29985;BME280;17387;42.690;23.328;2022-07-23T07:17:44;47278.88;;;-144.02;39.01
29985;BME280;17387;42.690;23.328;2022-07-23T07:20:09;47230.16;;;-144.02;38.07
29985;BME280;17387;42.690;23.328;2022-07-23T07:22:35;47248.41;;;-144.02;38.54
29985;BME280;17387;42.690;23.328;2022-07-23T07:25:01;47254.50;;;-144.02;38.44
29985;BME280;17387;42.690;23.328;2022-07-23T07:27:26;47242.31;;;-144.02;37.88
29985;BME280;17387;42.690;23.328;2022-07-23T07:29:52;47372.31;;;-144.02;38.58
29985;BME280;17387;42.690;23.328;2022-07-23T07:32:17;47254.50;;;-144.02;38.36
29985;BME280;17387;42.690;23.328;2022-07-23T07:34:43;47264.66;;;-144.02;38.04
29985;BME280;17387;42.690;23.328;2022-07-23T07:37:08;47250.44;;;-144.02;38.28
29985;BME280;17387;42.690;23.328;2022-07-23T07:39:34;47311.38;;;-144.02;38.57
29985;BME280;17387;42.690;23.328;2022-07-23T07:41:59;47236.22;;;-144.02;37.61
29985;BME280;17387;42.690;23.328;2022-07-23T07:44:24;47274.81;;;-144.02;36.94
29985;BME280;17387;42.690;23.328;2022-07-23T07:46:50;47266.69;;;-144.02;36.64
29985;BME280;17387;42.690;23.328;2022-07-23T07:49:15;47258.56;;;-144.02;36.10
29985;BME280;17387;42.690;23.328;2022-07-23T07:51:44;47146.88;;;-144.02;35.25
29985;BME280;17387;42.690;23.328;2022-07-23T07:54:10;47248.41;;;-144.02;35.47
29985;BME280;17387;42.690;23.328;2022-07-23T07:56:35;47256.53;;;-144.02;36.14
29985;BME280;17387;42.690;23.328;2022-07-23T07:59:01;47254.50;;;-144.02;34.94
29985;BME280;17387;42.690;23.328;2022-07-23T08:01:26;47260.59;;;-144.02;35.19
29985;BME280;17387;42.690;23.328;2022-07-23T08:03:52;47205.78;;;-144.02;34.05
29985;BME280;17387;42.690;23.328;2022-07-23T08:06:17;47260.59;;;-144.02;34.26
29985;BME280;17387;42.690;23.328;2022-07-23T08:08:43;47335.75;;;-144.02;33.84
29985;BME280;17387;42.690;23.328;2022-07-23T08:11:08;47262.63;;;-144.02;34.08
29985;BME280;17387;42.690;23.328;2022-07-23T08:13:34;47250.44;;;-144.02;33.91
29985;BME280;17387;42.690;23.328;2022-07-23T08:15:59;47248.41;;;-144.02;34.07
29985;BME280;17387;42.690;23.328;2022-07-23T08:18:25;47220.00;;;-144.02;34.04
29985;BME280;17387;42.690;23.328;2022-07-23T08:20:50;47240.28;;;-144.02;34.28
29985;BME280;17387;42.690;23.328;2022-07-23T08:23:15;47242.31;;;-144.02;33.78
29985;BME280;17387;42.690;23.328;2022-07-23T08:25:44;47226.09;;;-144.02;33.74
29985;BME280;17387;42.690;23.328;2022-07-23T08:28:11;47262.63;;;-144.02;33.42
29985;BME280;17387;42.690;23.328;2022-07-23T08:30:38;47252.47;;;-144.02;33.29
29985;BME280;17387;42.690;23.328;2022-07-23T08:33:09;47268.72;;;-144.02;33.13
29985;BME280;17387;42.690;23.328;2022-07-23T08:35:40;47209.84;;;-144.02;33.81
29985;BME280;17387;42.690;23.328;2022-07-23T08:38:09;47256.53;;;-144.02;33.01
29985;BME280;17387;42.690;23.328;2022-07-23T08:40:37;47183.44;;;-144.02;32.70
29985;BME280;17387;42.690;23.328;2022-07-23T08:43:05;47197.66;;;-144.02;32.87
29985;BME280;17387;42.690;23.328;2022-07-23T08:45:35;47205.78;;;-144.02;32.58
29985;BME280;17387;42.690;23.328;2022-07-23T08:48:02;47193.59;;;-144.02;32.37
29985;BME280;17387;42.690;23.328;2022-07-23T08:50:28;47201.72;;;-144.02;31.81
29985;BME280;17387;42.690;23.328;2022-07-23T08:52:54;47203.75;;;-144.02;31.76
29985;BME280;17387;42.690;23.328;2022-07-23T08:55:22;47199.69;;;-144.02;31.70
29985;BME280;17387;42.690;23.328;2022-07-23T08:57:50;47217.97;;;-144.02;31.84
29985;BME280;17387;42.690;23.328;2022-07-23T09:00:16;47195.63;;;-144.02;31.74
29985;BME280;17387;42.690;23.328;2022-07-23T09:02:42;47230.16;;;-144.02;31.78
29985;BME280;17387;42.690;23.328;2022-07-23T09:05:09;47193.59;;;-144.02;31.50
29985;BME280;17387;42.690;23.328;2022-07-23T09:07:37;47205.78;;;-144.02;31.56
29985;BME280;17387;42.690;23.328;2022-07-23T09:10:09;47171.25;;;-144.02;31.01
29985;BME280;17387;42.690;23.328;2022-07-23T09:12:35;47185.47;;;-144.02;30.68
29985;BME280;17387;42.690;23.328;2022-07-23T09:15:07;47165.16;;;-144.02;30.08
29985;BME280;17387;42.690;23.328;2022-07-23T09:17:39;47181.41;;;-144.02;30.42
29985;BME280;17387;42.690;23.328;2022-07-23T09:20:13;47185.47;;;-144.02;29.96
29985;BME280;17387;42.690;23.328;2022-07-23T09:22:44;47163.13;;;-144.02;29.88
29985;BME280;17387;42.690;23.328;2022-07-23T09:25:16;47195.63;;;-144.02;29.75
29985;BME280;17387;42.690;23.328;2022-07-23T09:27:56;47142.81;;;-144.02;28.75
29985;BME280;17387;42.690;23.328;2022-07-23T09:30:24;47193.59;;;-144.02;28.91
29985;BME280;17387;42.690;23.328;2022-07-23T09:33:13;47171.25;;;-144.02;28.53
29985;BME280;17387;42.690;23.328;2022-07-23T09:38:12;47134.69;;;-144.02;28.42
29985;BME280;17387;42.690;23.328;2022-07-23T09:40:37;47177.34;;;-144.02;28.36
29985;BME280;17387;42.690;23.328;2022-07-23T09:43:03;47189.53;;;-144.02;27.26
29985;BME280;17387;42.690;23.328;2022-07-23T09:45:29;47177.34;;;-144.02;27.58
29985;BME280;17387;42.690;23.328;2022-07-23T09:48:13;47157.03;;;-144.02;27.01
29985;BME280;17387;42.690;23.328;2022-07-23T09:50:40;47175.31;;;-144.02;27.43
29985;BME280;17387;42.690;23.328;2022-07-23T09:53:06;47161.09;;;-144.02;27.05
29985;BME280;17387;42.690;23.328;2022-07-23T09:55:33;47203.75;;;-144.02;27.00
29985;BME280;17387;42.690;23.328;2022-07-23T09:58:03;47165.16;;;-144.02;26.23
29985;BME280;17387;42.690;23.328;2022-07-23T10:00:30;47161.09;;;-144.02;26.49
29985;BME280;17387;42.690;23.328;2022-07-23T10:02:57;47165.16;;;-144.02;26.18
29985;BME280;17387;42.690;23.328;2022-07-23T10:05:24;47246.38;;;-144.02;26.59
29985;BME280;17387;42.690;23.328;2022-07-23T10:07:50;47157.03;;;-144.02;26.41
29985;BME280;17387;42.690;23.328;2022-07-23T10:10:17;47146.88;;;-144.02;26.23
29985;BME280;17387;42.690;23.328;2022-07-23T10:12:46;47124.53;;;-144.02;25.81
29985;BME280;17387;42.690;23.328;2022-07-23T10:15:30;47205.78;;;-144.02;25.73
29985;BME280;17387;42.690;23.328;2022-07-23T10:17:56;47161.09;;;-144.02;25.58
29985;BME280;17387;42.690;23.328;2022-07-23T10:20:21;47140.78;;;-144.02;25.55
29985;BME280;17387;42.690;23.328;2022-07-23T10:26:15;47148.91;;;-144.02;24.77
29985;BME280;17387;42.690;23.328;2022-07-23T10:28:56;47136.72;;;-144.02;24.34
29985;BME280;17387;42.690;23.328;2022-07-23T10:32:23;47132.66;;;-144.02;24.58
29985;BME280;17387;42.690;23.328;2022-07-23T10:37:24;47175.31;;;-144.02;24.05
29985;BME280;17387;42.690;23.328;2022-07-23T10:40:17;47161.09;;;-144.02;24.23
29985;BME280;17387;42.690;23.328;2022-07-23T10:42:44;47165.16;;;-144.02;23.97
29985;BME280;17387;42.690;23.328;2022-07-23T10:47:48;47152.97;;;-144.02;23.63
29985;BME280;17387;42.690;23.328;2022-07-23T10:50:22;47169.22;;;-144.02;23.41
29985;BME280;17387;42.690;23.328;2022-07-23T10:57:58;47173.28;;;-144.02;22.60
29985;BME280;17387;42.690;23.328;2022-07-23T11:00:26;47169.22;;;-144.02;23.22
29985;BME280;17387;42.690;23.328;2022-07-23T11:02:55;47148.91;;;-144.02;22.95
29985;BME280;17387;42.690;23.328;2022-07-23T11:05:23;47067.66;;;-144.02;23.01
29985;BME280;17387;42.690;23.328;2022-07-23T11:10:35;47134.69;;;-144.02;21.87
29985;BME280;17387;42.690;23.328;2022-07-23T11:13:40;47124.53;;;-144.02;21.09
29985;BME280;17387;42.690;23.328;2022-07-23T11:16:08;47138.75;;;-144.02;20.72
29985;BME280;17387;42.690;23.328;2022-07-23T11:24:12;47148.91;;;-144.02;20.35
29985;BME280;17387;42.690;23.328;2022-07-23T11:26:45;47136.72;;;-144.02;20.88
29985;BME280;17387;42.690;23.328;2022-07-23T11:34:41;47124.53;;;-144.02;19.70
29985;BME280;17387;42.690;23.328;2022-07-23T11:37:11;47124.53;;;-144.02;19.82
29985;BME280;17387;42.690;23.328;2022-07-23T11:39:38;47112.34;;;-144.02;20.40
29985;BME280;17387;42.690;23.328;2022-07-23T11:42:05;47104.22;;;-144.02;20.19
29985;BME280;17387;42.690;23.328;2022-07-23T11:47:05;47230.16;;;-144.02;18.95
29985;BME280;17387;42.690;23.328;2022-07-23T11:49:32;47104.22;;;-144.02;19.72
29985;BME280;17387;42.690;23.328;2022-07-23T11:52:11;47055.47;;;-144.02;19.76
29985;BME280;17387;42.690;23.328;2022-07-23T11:54:47;47108.28;;;-144.02;19.59
29985;BME280;17387;42.690;23.328;2022-07-23T11:57:13;47104.22;;;-144.02;19.57
29985;BME280;17387;42.690;23.328;2022-07-23T11:59:39;47150.94;;;-144.02;19.78
29985;BME280;17387;42.690;23.328;2022-07-23T12:02:06;47094.06;;;-144.02;19.56
29985;BME280;17387;42.690;23.328;2022-07-23T12:04:44;47079.84;;;-144.02;19.58
29985;BME280;17387;42.690;23.328;2022-07-23T12:09:51;47043.31;;;-144.02;19.41
29985;BME280;17387;42.690;23.328;2022-07-23T12:12:16;47108.28;;;-144.02;19.01
29985;BME280;17387;42.690;23.328;2022-07-23T12:14:53;47094.06;;;-144.02;19.16
29985;BME280;17387;42.690;23.328;2022-07-23T12:17:20;47061.56;;;-144.02;18.47
29985;BME280;17387;42.690;23.328;2022-07-23T12:19:46;47033.16;;;-144.02;18.12
29985;BME280;17387;42.690;23.328;2022-07-23T12:22:12;47006.75;;;-144.02;17.50
29985;BME280;17387;42.690;23.328;2022-07-23T12:24:58;47002.69;;;-144.02;17.30
29985;BME280;17387;42.690;23.328;2022-07-23T12:27:25;47031.13;;;-144.02;17.42
29985;BME280;17387;42.690;23.328;2022-07-23T12:29:51;47018.94;;;-144.02;17.68
29985;BME280;17387;42.690;23.328;2022-07-23T12:32:27;47008.78;;;-144.02;17.95
29985;BME280;17387;42.690;23.328;2022-07-23T12:35:05;46982.38;;;-144.02;17.33
29985;BME280;17387;42.690;23.328;2022-07-23T12:37:39;46970.19;;;-144.02;17.20
29985;BME280;17387;42.690;23.328;2022-07-23T12:40:25;46996.59;;;-144.02;17.37
29985;BME280;17387;42.690;23.328;2022-07-23T12:42:54;46994.56;;;-144.02;16.96
29985;BME280;17387;42.690;23.328;2022-07-23T12:45:20;46992.53;;;-144.02;17.10
29985;BME280;17387;42.690;23.328;2022-07-23T12:48:03;47094.06;;;-144.02;16.78
29985;BME280;17387;42.690;23.328;2022-07-23T12:50:42;46982.38;;;-144.02;17.00
29985;BME280;17387;42.690;23.328;2022-07-23T12:53:20;47047.38;;;-144.02;17.64
29985;BME280;17387;42.690;23.328;2022-07-23T12:55:47;47035.19;;;-144.02;17.40
29985;BME280;17387;42.690;23.328;2022-07-23T12:58:18;47023.00;;;-144.02;17.26
29985;BME280;17387;42.690;23.328;2022-07-23T13:01:00;46984.41;;;-144.02;17.06
29985;BME280;17387;42.690;23.328;2022-07-23T13:03:30;46984.41;;;-144.02;16.92
29985;BME280;17387;42.690;23.328;2022-07-23T13:05:57;46974.25;;;-144.02;16.78